createdAt,value
2023-03-10T14:17:29.788Z,11.40
2023-03-10T14:19:58.185Z,11.00
2023-03-10T14:22:36.424Z,10.70
2023-03-10T14:25:09.719Z,10.90
2023-03-10T14:27:42.573Z,10.60
2023-03-10T21:40:28.800Z,4.80
2023-03-10T21:45:30.237Z,4.50
2023-03-10T21:47:58.315Z,4.50
2023-03-10T21:50:26.810Z,4.90
2023-03-10T21:52:54.906Z,4.50
2023-03-10T21:55:25.606Z,3.30
2023-03-10T21:57:53.944Z,4.60
2023-03-10T22:00:24.476Z,4.60
2023-03-10T22:02:53.078Z,4.60
2023-03-10T22:05:22.021Z,4.60
2023-03-10T22:07:50.790Z,4.60
2023-03-10T22:10:19.365Z,7.80
2023-03-10T22:12:47.997Z,4.60
2023-03-10T22:15:19.746Z,3.10
2023-03-10T22:17:50.791Z,4.60
2023-03-10T22:20:21.752Z,4.50
2023-03-10T22:22:50.336Z,4.60
2023-03-10T22:25:22.184Z,4.60
2023-03-10T22:27:52.749Z,7.10
2023-03-10T22:30:21.620Z,4.60
2023-03-10T22:32:51.196Z,4.60
2023-03-10T22:35:20.673Z,4.60
2023-03-10T22:37:51.546Z,4.60
2023-03-10T22:47:57.434Z,3.80
2023-03-10T22:52:57.781Z,3.70
2023-03-10T22:57:56.522Z,3.40
2023-03-10T23:07:55.553Z,3.40
2023-03-10T23:10:26.815Z,4.00
2023-03-10T23:12:56.303Z,6.60
2023-03-10T23:15:26.611Z,3.60
2023-03-10T23:17:57.099Z,3.80
2023-03-10T23:20:27.721Z,3.60
2023-03-10T23:22:57.143Z,3.90
2023-03-10T23:25:27.749Z,4.70
2023-03-10T23:27:55.873Z,3.60
2023-03-10T23:30:24.899Z,5.30
2023-03-10T23:32:53.621Z,4.60
2023-03-10T23:35:25.844Z,3.50
2023-03-10T23:37:53.879Z,3.40
2023-03-10T23:40:23.348Z,3.40
2023-03-10T23:42:52.150Z,3.30
2023-03-10T23:45:22.704Z,3.20
2023-03-10T23:47:52.019Z,3.20
2023-03-10T23:50:23.953Z,3.10
2023-03-10T23:52:52.006Z,3.10
2023-03-10T23:57:51.908Z,2.90
